sensor_id;sensor_type;location;lat;lon;timestamp;temperature;humidity
23471;DHT22;11908;50.806;4.424;2023-05-10T00:00:33;13.50;99.90
23471;DHT22;11908;50.806;4.424;2023-05-10T00:02:58;13.60;99.90
23471;DHT22;11908;50.806;4.424;2023-05-10T00:05:24;13.60;99.90
23471;DHT22;11908;50.806;4.424;2023-05-10T00:07:50;13.60;99.90
23471;DHT22;11908;50.806;4.424;2023-05-10T00:10:16;13.60;99.90
23471;DHT22;11908;50.806;4.424;2023-05-10T00:12:41;13.70;99.90
23471;DHT22;11908;50.806;4.424;2023-05-10T00:15:08;13.60;99.90
23471;DHT22;11908;50.806;4.424;2023-05-10T00:17:33;13.70;99.90
23471;DHT22;11908;50.806;4.424;2023-05-10T00:19:59;13.70;99.90
23471;DHT22;11908;50.806;4.424;2023-05-10T00:22:25;13.80;99.90
23471;DHT22;11908;50.806;4.424;2023-05-10T00:24:51;13.80;99.90
23471;DHT22;11908;50.806;4.424;2023-05-10T00:27:17;13.80;99.90
23471;DHT22;11908;50.806;4.424;2023-05-10T00:29:42;13.80;99.90
23471;DHT22;11908;50.806;4.424;2023-05-10T00:32:08;13.80;99.90
23471;DHT22;11908;50.806;4.424;2023-05-10T00:34:34;13.90;99.90
23471;DHT22;11908;50.806;4.424;2023-05-10T00:36:59;14.00;99.90
23471;DHT22;11908;50.806;4.424;2023-05-10T00:39:25;14.00;99.90
23471;DHT22;11908;50.806;4.424;2023-05-10T00:41:52;13.80;99.90
23471;DHT22;11908;50.806;4.424;2023-05-10T00:44:17;13.80;99.90
23471;DHT22;11908;50.806;4.424;2023-05-10T00:46:44;13.80;99.90
23471;DHT22;11908;50.806;4.424;2023-05-10T00:49:10;13.70;99.90
23471;DHT22;11908;50.806;4.424;2023-05-10T00:51:36;13.80;99.90
23471;DHT22;11908;50.806;4.424;2023-05-10T00:54:02;13.90;99.90
23471;DHT22;11908;50.806;4.424;2023-05-10T00:56:28;13.90;99.90
23471;DHT22;11908;50.806;4.424;2023-05-10T00:58:55;13.80;99.90
23471;DHT22;11908;50.806;4.424;2023-05-10T01:01:22;13.80;99.90
23471;DHT22;11908;50.806;4.424;2023-05-10T01:03:48;13.90;99.90
23471;DHT22;11908;50.806;4.424;2023-05-10T01:06:13;13.90;99.90
23471;DHT22;11908;50.806;4.424;2023-05-10T01:08:39;13.90;99.90
23471;DHT22;11908;50.806;4.424;2023-05-10T01:11:05;14.00;99.90
23471;DHT22;11908;50.806;4.424;2023-05-10T01:13:37;14.10;99.90
23471;DHT22;11908;50.806;4.424;2023-05-10T01:16:04;14.00;99.90
23471;DHT22;11908;50.806;4.424;2023-05-10T01:18:34;13.90;99.90
23471;DHT22;11908;50.806;4.424;2023-05-10T01:34:35;13.80;99.90
23471;DHT22;11908;50.806;4.424;2023-05-10T01:37:15;13.80;99.90
23471;DHT22;11908;50.806;4.424;2023-05-10T01:39:47;13.90;99.90
23471;DHT22;11908;50.806;4.424;2023-05-10T01:42:20;13.90;99.90
23471;DHT22;11908;50.806;4.424;2023-05-10T01:45:00;13.90;99.90
23471;DHT22;11908;50.806;4.424;2023-05-10T01:50:22;13.90;99.90
23471;DHT22;11908;50.806;4.424;2023-05-10T01:52:52;14.00;99.90
23471;DHT22;11908;50.806;4.424;2023-05-10T01:55:21;14.00;99.90
23471;DHT22;11908;50.806;4.424;2023-05-10T01:57:52;13.80;99.90
23471;DHT22;11908;50.806;4.424;2023-05-10T02:00:21;13.90;99.90
23471;DHT22;11908;50.806;4.424;2023-05-10T02:02:48;13.90;99.90
23471;DHT22;11908;50.806;4.424;2023-05-10T02:05:16;13.80;99.90
23471;DHT22;11908;50.806;4.424;2023-05-10T02:07:43;13.60;99.90
23471;DHT22;11908;50.806;4.424;2023-05-10T02:10:10;13.70;99.90
23471;DHT22;11908;50.806;4.424;2023-05-10T02:12:37;13.60;99.90
23471;DHT22;11908;50.806;4.424;2023-05-10T02:15:06;13.60;99.90
23471;DHT22;11908;50.806;4.424;2023-05-10T02:17:32;13.50;99.90
23471;DHT22;11908;50.806;4.424;2023-05-10T02:20:00;13.60;99.90
23471;DHT22;11908;50.806;4.424;2023-05-10T02:22:27;13.70;99.90
23471;DHT22;11908;50.806;4.424;2023-05-10T02:24:55;13.80;99.90
23471;DHT22;11908;50.806;4.424;2023-05-10T02:27:23;13.80;99.90
23471;DHT22;11908;50.806;4.424;2023-05-10T02:29:50;13.80;99.90
23471;DHT22;11908;50.806;4.424;2023-05-10T02:32:16;13.70;99.90
23471;DHT22;11908;50.806;4.424;2023-05-10T02:34:43;13.70;99.90
23471;DHT22;11908;50.806;4.424;2023-05-10T02:37:13;13.70;99.90
23471;DHT22;11908;50.806;4.424;2023-05-10T02:39:39;13.50;99.90
23471;DHT22;11908;50.806;4.424;2023-05-10T02:42:11;13.50;99.90
23471;DHT22;11908;50.806;4.424;2023-05-10T02:44:42;13.60;99.90
23471;DHT22;11908;50.806;4.424;2023-05-10T02:47:08;13.60;99.90
23471;DHT22;11908;50.806;4.424;2023-05-10T02:49:34;13.70;99.90
23471;DHT22;11908;50.806;4.424;2023-05-10T02:52:01;13.60;99.90
23471;DHT22;11908;50.806;4.424;2023-05-10T02:54:32;13.50;99.90
23471;DHT22;11908;50.806;4.424;2023-05-10T02:57:00;13.50;99.90
23471;DHT22;11908;50.806;4.424;2023-05-10T02:59:28;13.40;99.90
23471;DHT22;11908;50.806;4.424;2023-05-10T03:01:54;13.40;99.90
23471;DHT22;11908;50.806;4.424;2023-05-10T03:04:19;13.50;99.90
23471;DHT22;11908;50.806;4.424;2023-05-10T03:06:46;13.40;99.90
23471;DHT22;11908;50.806;4.424;2023-05-10T03:09:12;13.40;99.90
23471;DHT22;11908;50.806;4.424;2023-05-10T03:12:03;13.50;99.90
23471;DHT22;11908;50.806;4.424;2023-05-10T03:17:22;13.60;99.90
23471;DHT22;11908;50.806;4.424;2023-05-10T03:20:03;13.50;99.90
23471;DHT22;11908;50.806;4.424;2023-05-10T03:22:45;13.50;99.90
23471;DHT22;11908;50.806;4.424;2023-05-10T03:25:12;13.40;99.90
23471;DHT22;11908;50.806;4.424;2023-05-10T03:27:42;13.40;99.90
23471;DHT22;11908;50.806;4.424;2023-05-10T03:30:10;13.40;99.90
23471;DHT22;11908;50.806;4.424;2023-05-10T03:32:37;13.40;99.90
23471;DHT22;11908;50.806;4.424;2023-05-10T03:35:10;13.40;99.90
23471;DHT22;11908;50.806;4.424;2023-05-10T03:37:37;13.40;99.90
23471;DHT22;11908;50.806;4.424;2023-05-10T03:40:03;13.40;99.90
23471;DHT22;11908;50.806;4.424;2023-05-10T03:42:29;13.50;99.90
23471;DHT22;11908;50.806;4.424;2023-05-10T03:44:55;13.40;99.90
23471;DHT22;11908;50.806;4.424;2023-05-10T03:47:20;13.40;99.90
23471;DHT22;11908;50.806;4.424;2023-05-10T03:49:46;13.40;99.90
23471;DHT22;11908;50.806;4.424;2023-05-10T03:52:12;13.40;99.90
23471;DHT22;11908;50.806;4.424;2023-05-10T03:54:37;13.40;99.90
23471;DHT22;11908;50.806;4.424;2023-05-10T03:57:03;13.50;99.90
23471;DHT22;11908;50.806;4.424;2023-05-10T03:59:29;13.40;99.90
23471;DHT22;11908;50.806;4.424;2023-05-10T04:01:55;13.40;99.90
23471;DHT22;11908;50.806;4.424;2023-05-10T04:04:21;13.50;99.90
23471;DHT22;11908;50.806;4.424;2023-05-10T04:06:47;13.50;99.90
23471;DHT22;11908;50.806;4.424;2023-05-10T04:09:13;13.50;99.90
23471;DHT22;11908;50.806;4.424;2023-05-10T04:11:39;13.50;99.90
23471;DHT22;11908;50.806;4.424;2023-05-10T04:14:04;13.50;99.90
23471;DHT22;11908;50.806;4.424;2023-05-10T04:16:30;13.50;99.90
23471;DHT22;11908;50.806;4.424;2023-05-10T04:18:56;13.30;99.90
23471;DHT22;11908;50.806;4.424;2023-05-10T04:21:22;13.40;99.90
23471;DHT22;11908;50.806;4.424;2023-05-10T04:23:47;13.60;99.90
23471;DHT22;11908;50.806;4.424;2023-05-10T04:26:13;13.60;99.90
23471;DHT22;11908;50.806;4.424;2023-05-10T04:28:39;13.60;99.90
23471;DHT22;11908;50.806;4.424;2023-05-10T04:31:09;13.50;99.90
23471;DHT22;11908;50.806;4.424;2023-05-10T04:33:37;13.60;99.90
23471;DHT22;11908;50.806;4.424;2023-05-10T04:36:03;13.70;99.90
23471;DHT22;11908;50.806;4.424;2023-05-10T04:38:29;13.70;99.90
23471;DHT22;11908;50.806;4.424;2023-05-10T04:41:06;13.80;99.90
23471;DHT22;11908;50.806;4.424;2023-05-10T04:43:32;13.80;99.90
23471;DHT22;11908;50.806;4.424;2023-05-10T04:45:58;13.80;99.90
23471;DHT22;11908;50.806;4.424;2023-05-10T04:48:24;13.80;99.90
23471;DHT22;11908;50.806;4.424;2023-05-10T04:50:50;13.80;99.90
23471;DHT22;11908;50.806;4.424;2023-05-10T04:53:15;13.70;99.90
23471;DHT22;11908;50.806;4.424;2023-05-10T04:55:41;13.60;99.90
23471;DHT22;11908;50.806;4.424;2023-05-10T04:58:07;13.50;99.90
23471;DHT22;11908;50.806;4.424;2023-05-10T05:00:33;13.50;99.90
23471;DHT22;11908;50.806;4.424;2023-05-10T05:02:59;13.50;99.90
23471;DHT22;11908;50.806;4.424;2023-05-10T05:05:25;13.40;99.90
23471;DHT22;11908;50.806;4.424;2023-05-10T05:07:50;13.50;99.90
23471;DHT22;11908;50.806;4.424;2023-05-10T05:10:16;13.50;99.90
23471;DHT22;11908;50.806;4.424;2023-05-10T05:12:42;13.40;99.90
23471;DHT22;11908;50.806;4.424;2023-05-10T05:15:07;13.40;99.90
23471;DHT22;11908;50.806;4.424;2023-05-10T05:17:36;13.40;99.90
23471;DHT22;11908;50.806;4.424;2023-05-10T05:20:02;13.30;99.90
23471;DHT22;11908;50.806;4.424;2023-05-10T05:22:28;13.30;99.90
23471;DHT22;11908;50.806;4.424;2023-05-10T05:24:55;13.40;99.90
23471;DHT22;11908;50.806;4.424;2023-05-10T05:27:20;13.50;99.90
23471;DHT22;11908;50.806;4.424;2023-05-10T05:29:50;13.50;99.90
23471;DHT22;11908;50.806;4.424;2023-05-10T05:32:15;13.50;99.90
23471;DHT22;11908;50.806;4.424;2023-05-10T05:34:41;13.40;99.90
23471;DHT22;11908;50.806;4.424;2023-05-10T05:37:07;13.30;99.90
23471;DHT22;11908;50.806;4.424;2023-05-10T05:39:32;13.30;99.90
23471;DHT22;11908;50.806;4.424;2023-05-10T05:41:58;13.30;99.90
23471;DHT22;11908;50.806;4.424;2023-05-10T05:44:24;13.20;99.90
23471;DHT22;11908;50.806;4.424;2023-05-10T05:46:49;13.30;99.90
23471;DHT22;11908;50.806;4.424;2023-05-10T05:49:15;13.30;99.90
23471;DHT22;11908;50.806;4.424;2023-05-10T05:51:41;13.20;99.90
23471;DHT22;11908;50.806;4.424;2023-05-10T05:54:07;13.20;99.90
23471;DHT22;11908;50.806;4.424;2023-05-10T05:56:32;13.30;99.90
23471;DHT22;11908;50.806;4.424;2023-05-10T05:58:58;13.40;99.90
23471;DHT22;11908;50.806;4.424;2023-05-10T06:01:24;13.30;99.90
23471;DHT22;11908;50.806;4.424;2023-05-10T06:03:49;13.40;99.90
23471;DHT22;11908;50.806;4.424;2023-05-10T06:06:15;13.30;99.90
23471;DHT22;11908;50.806;4.424;2023-05-10T06:08:41;13.20;99.90
23471;DHT22;11908;50.806;4.424;2023-05-10T06:11:06;13.20;99.90
23471;DHT22;11908;50.806;4.424;2023-05-10T06:13:32;13.10;99.90
23471;DHT22;11908;50.806;4.424;2023-05-10T06:15:58;13.20;99.90
23471;DHT22;11908;50.806;4.424;2023-05-10T06:18:24;13.20;99.90
23471;DHT22;11908;50.806;4.424;2023-05-10T06:20:51;13.30;99.90
23471;DHT22;11908;50.806;4.424;2023-05-10T06:23:17;13.30;99.90
23471;DHT22;11908;50.806;4.424;2023-05-10T06:25:43;13.20;99.90
23471;DHT22;11908;50.806;4.424;2023-05-10T06:28:08;13.30;99.90
23471;DHT22;11908;50.806;4.424;2023-05-10T06:30:36;13.30;99.90
23471;DHT22;11908;50.806;4.424;2023-05-10T06:33:02;13.20;99.90
23471;DHT22;11908;50.806;4.424;2023-05-10T06:35:28;13.20;99.90
23471;DHT22;11908;50.806;4.424;2023-05-10T06:37:54;13.10;99.90
23471;DHT22;11908;50.806;4.424;2023-05-10T06:40:20;13.10;99.90
23471;DHT22;11908;50.806;4.424;2023-05-10T06:42:47;13.30;99.90
23471;DHT22;11908;50.806;4.424;2023-05-10T06:45:14;13.30;99.90
23471;DHT22;11908;50.806;4.424;2023-05-10T06:47:40;13.40;99.90
23471;DHT22;11908;50.806;4.424;2023-05-10T06:50:07;13.50;99.90
23471;DHT22;11908;50.806;4.424;2023-05-10T06:52:33;13.60;99.90
23471;DHT22;11908;50.806;4.424;2023-05-10T06:54:59;13.50;99.90
23471;DHT22;11908;50.806;4.424;2023-05-10T06:57:24;13.60;99.90
23471;DHT22;11908;50.806;4.424;2023-05-10T06:59:50;13.60;99.90
23471;DHT22;11908;50.806;4.424;2023-05-10T07:02:16;13.60;99.90
23471;DHT22;11908;50.806;4.424;2023-05-10T07:04:42;13.60;99.90
23471;DHT22;11908;50.806;4.424;2023-05-10T07:07:08;13.50;99.90
23471;DHT22;11908;50.806;4.424;2023-05-10T07:09:34;13.50;99.90
23471;DHT22;11908;50.806;4.424;2023-05-10T07:11:59;13.50;99.90
23471;DHT22;11908;50.806;4.424;2023-05-10T07:14:27;13.60;99.90
23471;DHT22;11908;50.806;4.424;2023-05-10T07:16:53;13.60;99.90
23471;DHT22;11908;50.806;4.424;2023-05-10T07:19:18;13.40;99.90
23471;DHT22;11908;50.806;4.424;2023-05-10T07:21:45;13.50;99.90
23471;DHT22;11908;50.806;4.424;2023-05-10T07:24:10;13.30;99.90
23471;DHT22;11908;50.806;4.424;2023-05-10T07:26:36;13.50;99.90
23471;DHT22;11908;50.806;4.424;2023-05-10T07:29:02;13.60;99.90
23471;DHT22;11908;50.806;4.424;2023-05-10T07:31:28;13.70;99.90
23471;DHT22;11908;50.806;4.424;2023-05-10T07:33:53;13.70;99.90
23471;DHT22;11908;50.806;4.424;2023-05-10T07:36:19;13.80;99.90
23471;DHT22;11908;50.806;4.424;2023-05-10T07:38:45;13.90;99.90
23471;DHT22;11908;50.806;4.424;2023-05-10T07:41:12;13.80;99.90
23471;DHT22;11908;50.806;4.424;2023-05-10T07:43:37;13.60;99.90
23471;DHT22;11908;50.806;4.424;2023-05-10T07:46:03;13.50;99.90
23471;DHT22;11908;50.806;4.424;2023-05-10T07:48:29;13.50;99.90
23471;DHT22;11908;50.806;4.424;2023-05-10T07:50:55;13.50;99.90
23471;DHT22;11908;50.806;4.424;2023-05-10T07:53:20;13.50;99.90
23471;DHT22;11908;50.806;4.424;2023-05-10T07:55:54;13.50;99.90
23471;DHT22;11908;50.806;4.424;2023-05-10T07:58:23;13.50;99.90
23471;DHT22;11908;50.806;4.424;2023-05-10T08:00:49;13.60;99.90
23471;DHT22;11908;50.806;4.424;2023-05-10T08:03:15;13.60;99.90
23471;DHT22;11908;50.806;4.424;2023-05-10T08:05:41;13.80;99.90
23471;DHT22;11908;50.806;4.424;2023-05-10T08:08:07;13.80;99.90
23471;DHT22;11908;50.806;4.424;2023-05-10T08:10:32;13.80;99.90
23471;DHT22;11908;50.806;4.424;2023-05-10T08:12:58;13.70;99.90
23471;DHT22;11908;50.806;4.424;2023-05-10T08:15:24;13.70;99.90
23471;DHT22;11908;50.806;4.424;2023-05-10T08:17:51;13.70;99.90
23471;DHT22;11908;50.806;4.424;2023-05-10T08:20:17;13.80;99.90
23471;DHT22;11908;50.806;4.424;2023-05-10T08:22:45;14.00;99.90
23471;DHT22;11908;50.806;4.424;2023-05-10T08:25:10;14.10;99.90
23471;DHT22;11908;50.806;4.424;2023-05-10T08:27:36;14.30;99.90
23471;DHT22;11908;50.806;4.424;2023-05-10T08:30:02;14.40;99.90
23471;DHT22;11908;50.806;4.424;2023-05-10T08:32:28;14.20;99.90
23471;DHT22;11908;50.806;4.424;2023-05-10T08:34:53;14.20;99.90
23471;DHT22;11908;50.806;4.424;2023-05-10T08:37:19;14.10;99.90
23471;DHT22;11908;50.806;4.424;2023-05-10T08:39:45;14.20;99.90
23471;DHT22;11908;50.806;4.424;2023-05-10T08:42:16;14.20;99.90
23471;DHT22;11908;50.806;4.424;2023-05-10T08:44:45;14.20;99.90
23471;DHT22;11908;50.806;4.424;2023-05-10T08:47:16;14.20;99.90
23471;DHT22;11908;50.806;4.424;2023-05-10T08:49:44;14.30;99.90
23471;DHT22;11908;50.806;4.424;2023-05-10T08:52:14;14.20;99.90
23471;DHT22;11908;50.806;4.424;2023-05-10T08:54:42;14.20;99.90
23471;DHT22;11908;50.806;4.424;2023-05-10T08:57:08;14.30;99.90
23471;DHT22;11908;50.806;4.424;2023-05-10T08:59:33;14.50;99.90
23471;DHT22;11908;50.806;4.424;2023-05-10T09:01:59;14.50;99.90
23471;DHT22;11908;50.806;4.424;2023-05-10T09:04:26;14.60;99.90
23471;DHT22;11908;50.806;4.424;2023-05-10T09:06:52;14.60;99.90
23471;DHT22;11908;50.806;4.424;2023-05-10T09:09:18;14.50;99.90
23471;DHT22;11908;50.806;4.424;2023-05-10T09:11:45;14.20;99.90
23471;DHT22;11908;50.806;4.424;2023-05-10T09:14:12;14.20;99.90
23471;DHT22;11908;50.806;4.424;2023-05-10T09:16:39;13.90;99.90
23471;DHT22;11908;50.806;4.424;2023-05-10T09:19:05;13.80;99.90
23471;DHT22;11908;50.806;4.424;2023-05-10T09:21:32;13.70;99.90
23471;DHT22;11908;50.806;4.424;2023-05-10T09:24:03;13.80;99.90
23471;DHT22;11908;50.806;4.424;2023-05-10T09:26:29;13.90;99.90
23471;DHT22;11908;50.806;4.424;2023-05-10T09:28:56;14.00;99.90
23471;DHT22;11908;50.806;4.424;2023-05-10T09:31:23;14.20;99.90
23471;DHT22;11908;50.806;4.424;2023-05-10T09:33:50;14.00;99.90
23471;DHT22;11908;50.806;4.424;2023-05-10T09:36:17;13.90;99.90
23471;DHT22;11908;50.806;4.424;2023-05-10T09:38:50;13.90;99.90
23471;DHT22;11908;50.806;4.424;2023-05-10T09:41:23;14.10;99.90
23471;DHT22;11908;50.806;4.424;2023-05-10T09:43:51;14.10;99.90
23471;DHT22;11908;50.806;4.424;2023-05-10T09:46:20;14.10;99.90
23471;DHT22;11908;50.806;4.424;2023-05-10T09:48:46;14.10;99.90
23471;DHT22;11908;50.806;4.424;2023-05-10T09:51:20;14.20;99.90
23471;DHT22;11908;50.806;4.424;2023-05-10T09:53:46;14.30;99.90
23471;DHT22;11908;50.806;4.424;2023-05-10T09:56:11;14.30;99.90
23471;DHT22;11908;50.806;4.424;2023-05-10T09:58:37;14.50;99.90
23471;DHT22;11908;50.806;4.424;2023-05-10T10:01:11;14.60;99.90
23471;DHT22;11908;50.806;4.424;2023-05-10T10:03:42;14.50;99.90
23471;DHT22;11908;50.806;4.424;2023-05-10T10:06:08;14.60;99.90
23471;DHT22;11908;50.806;4.424;2023-05-10T10:08:34;14.70;99.90
23471;DHT22;11908;50.806;4.424;2023-05-10T10:11:00;14.50;99.90
23471;DHT22;11908;50.806;4.424;2023-05-10T10:13:26;14.50;99.90
23471;DHT22;11908;50.806;4.424;2023-05-10T10:15:53;14.40;99.90
23471;DHT22;11908;50.806;4.424;2023-05-10T10:18:19;14.50;99.90
23471;DHT22;11908;50.806;4.424;2023-05-10T10:20:49;14.70;99.90
23471;DHT22;11908;50.806;4.424;2023-05-10T10:23:15;14.70;99.90
23471;DHT22;11908;50.806;4.424;2023-05-10T10:25:41;14.80;99.90
23471;DHT22;11908;50.806;4.424;2023-05-10T10:28:31;14.90;99.90
23471;DHT22;11908;50.806;4.424;2023-05-10T10:31:34;14.60;99.90
23471;DHT22;11908;50.806;4.424;2023-05-10T10:34:09;14.40;99.90
23471;DHT22;11908;50.806;4.424;2023-05-10T10:36:48;14.80;99.90
23471;DHT22;11908;50.806;4.424;2023-05-10T10:39:14;14.80;99.90
23471;DHT22;11908;50.806;4.424;2023-05-10T10:41:51;14.90;99.90
23471;DHT22;11908;50.806;4.424;2023-05-10T10:49:50;15.20;99.90
23471;DHT22;11908;50.806;4.424;2023-05-10T10:52:27;15.60;99.90
23471;DHT22;11908;50.806;4.424;2023-05-10T10:55:15;15.80;99.90
23471;DHT22;11908;50.806;4.424;2023-05-10T10:57:48;15.80;99.90
23471;DHT22;11908;50.806;4.424;2023-05-10T11:02:48;16.10;99.90
23471;DHT22;11908;50.806;4.424;2023-05-10T11:08:08;16.00;99.90
23471;DHT22;11908;50.806;4.424;2023-05-10T11:10:34;16.10;99.90
23471;DHT22;11908;50.806;4.424;2023-05-10T11:13:05;16.20;99.90
23471;DHT22;11908;50.806;4.424;2023-05-10T11:15:36;16.30;99.90
23471;DHT22;11908;50.806;4.424;2023-05-10T11:18:21;16.50;99.90
23471;DHT22;11908;50.806;4.424;2023-05-10T11:20:55;16.60;99.90
23471;DHT22;11908;50.806;4.424;2023-05-10T11:23:21;16.90;99.90
23471;DHT22;11908;50.806;4.424;2023-05-10T11:25:48;16.90;99.90
23471;DHT22;11908;50.806;4.424;2023-05-10T11:28:17;16.90;99.90
23471;DHT22;11908;50.806;4.424;2023-05-10T11:30:44;17.00;99.90
23471;DHT22;11908;50.806;4.424;2023-05-10T11:33:15;17.30;99.90
23471;DHT22;11908;50.806;4.424;2023-05-10T11:35:41;17.50;99.90
23471;DHT22;11908;50.806;4.424;2023-05-10T11:38:11;17.70;99.90
23471;DHT22;11908;50.806;4.424;2023-05-10T11:40:38;17.80;99.90
23471;DHT22;11908;50.806;4.424;2023-05-10T11:43:04;17.70;99.90
23471;DHT22;11908;50.806;4.424;2023-05-10T11:45:33;17.80;99.90
23471;DHT22;11908;50.806;4.424;2023-05-10T11:47:59;17.90;99.90
23471;DHT22;11908;50.806;4.424;2023-05-10T11:50:25;18.00;99.90
23471;DHT22;11908;50.806;4.424;2023-05-10T11:52:52;18.30;99.90
23471;DHT22;11908;50.806;4.424;2023-05-10T11:55:18;18.30;99.90
23471;DHT22;11908;50.806;4.424;2023-05-10T11:57:44;18.00;99.90
23471;DHT22;11908;50.806;4.424;2023-05-10T12:00:12;17.80;99.90
23471;DHT22;11908;50.806;4.424;2023-05-10T12:02:38;18.20;99.90
23471;DHT22;11908;50.806;4.424;2023-05-10T12:05:05;18.50;99.90
23471;DHT22;11908;50.806;4.424;2023-05-10T12:07:31;18.60;99.90
23471;DHT22;11908;50.806;4.424;2023-05-10T12:10:06;18.30;99.90
23471;DHT22;11908;50.806;4.424;2023-05-10T12:12:41;18.00;99.90
23471;DHT22;11908;50.806;4.424;2023-05-10T12:15:11;17.70;99.90
23471;DHT22;11908;50.806;4.424;2023-05-10T12:17:38;18.10;99.90
23471;DHT22;11908;50.806;4.424;2023-05-10T12:20:19;18.00;99.90
23471;DHT22;11908;50.806;4.424;2023-05-10T12:22:53;17.80;99.90
23471;DHT22;11908;50.806;4.424;2023-05-10T12:25:20;17.90;99.90
23471;DHT22;11908;50.806;4.424;2023-05-10T12:27:53;18.00;99.90
23471;DHT22;11908;50.806;4.424;2023-05-10T12:30:25;18.40;99.90
23471;DHT22;11908;50.806;4.424;2023-05-10T12:32:51;18.90;99.90
23471;DHT22;11908;50.806;4.424;2023-05-10T12:35:17;18.90;99.90
23471;DHT22;11908;50.806;4.424;2023-05-10T12:37:46;19.10;99.90
23471;DHT22;11908;50.806;4.424;2023-05-10T12:40:12;19.00;99.90
23471;DHT22;11908;50.806;4.424;2023-05-10T12:42:38;18.80;99.90
23471;DHT22;11908;50.806;4.424;2023-05-10T12:45:05;18.90;99.90
23471;DHT22;11908;50.806;4.424;2023-05-10T12:47:32;19.00;99.90
23471;DHT22;11908;50.806;4.424;2023-05-10T12:49:59;19.20;99.90
23471;DHT22;11908;50.806;4.424;2023-05-10T12:52:25;18.70;99.90
23471;DHT22;11908;50.806;4.424;2023-05-10T12:54:52;18.80;99.90
23471;DHT22;11908;50.806;4.424;2023-05-10T12:57:18;18.50;99.90
23471;DHT22;11908;50.806;4.424;2023-05-10T12:59:44;18.60;99.90
23471;DHT22;11908;50.806;4.424;2023-05-10T13:02:09;18.60;99.90
23471;DHT22;11908;50.806;4.424;2023-05-10T13:04:35;18.50;99.90
23471;DHT22;11908;50.806;4.424;2023-05-10T13:07:07;18.30;99.90
23471;DHT22;11908;50.806;4.424;2023-05-10T13:09:33;18.60;99.90
23471;DHT22;11908;50.806;4.424;2023-05-10T13:11:58;19.10;99.90
23471;DHT22;11908;50.806;4.424;2023-05-10T13:14:25;19.30;99.90
23471;DHT22;11908;50.806;4.424;2023-05-10T13:16:50;19.20;99.90
23471;DHT22;11908;50.806;4.424;2023-05-10T13:19:16;19.30;99.90
23471;DHT22;11908;50.806;4.424;2023-05-10T13:21:43;19.60;99.90
23471;DHT22;11908;50.806;4.424;2023-05-10T13:24:10;19.50;99.90
23471;DHT22;11908;50.806;4.424;2023-05-10T13:26:36;19.40;99.90
23471;DHT22;11908;50.806;4.424;2023-05-10T13:29:02;19.70;99.90
23471;DHT22;11908;50.806;4.424;2023-05-10T13:31:28;19.70;99.90
23471;DHT22;11908;50.806;4.424;2023-05-10T13:33:55;19.80;99.90
23471;DHT22;11908;50.806;4.424;2023-05-10T13:36:20;20.00;99.90
23471;DHT22;11908;50.806;4.424;2023-05-10T13:38:46;20.30;99.90
23471;DHT22;11908;50.806;4.424;2023-05-10T13:41:12;20.00;99.90
23471;DHT22;11908;50.806;4.424;2023-05-10T13:43:37;19.90;99.90
23471;DHT22;11908;50.806;4.424;2023-05-10T13:46:03;19.50;99.90
23471;DHT22;11908;50.806;4.424;2023-05-10T13:48:29;19.10;99.90
23471;DHT22;11908;50.806;4.424;2023-05-10T13:50:54;19.00;99.90
23471;DHT22;11908;50.806;4.424;2023-05-10T13:53:20;18.80;99.90
23471;DHT22;11908;50.806;4.424;2023-05-10T13:55:47;18.50;99.90
23471;DHT22;11908;50.806;4.424;2023-05-10T13:58:13;18.60;99.90
23471;DHT22;11908;50.806;4.424;2023-05-10T14:00:38;18.60;99.90
23471;DHT22;11908;50.806;4.424;2023-05-10T14:03:04;18.60;99.90
23471;DHT22;11908;50.806;4.424;2023-05-10T14:05:31;18.40;99.90
23471;DHT22;11908;50.806;4.424;2023-05-10T14:07:57;18.20;99.90
23471;DHT22;11908;50.806;4.424;2023-05-10T14:10:22;18.40;99.90
23471;DHT22;11908;50.806;4.424;2023-05-10T14:12:49;18.20;99.90
23471;DHT22;11908;50.806;4.424;2023-05-10T14:15:15;18.50;99.90
23471;DHT22;11908;50.806;4.424;2023-05-10T14:17:41;18.40;99.90
23471;DHT22;11908;50.806;4.424;2023-05-10T14:20:07;18.50;99.90
23471;DHT22;11908;50.806;4.424;2023-05-10T14:22:33;18.40;99.90
23471;DHT22;11908;50.806;4.424;2023-05-10T14:24:58;18.40;99.90
23471;DHT22;11908;50.806;4.424;2023-05-10T14:27:24;18.40;99.90
23471;DHT22;11908;50.806;4.424;2023-05-10T14:29:50;18.30;99.90
23471;DHT22;11908;50.806;4.424;2023-05-10T14:32:16;18.30;99.90
23471;DHT22;11908;50.806;4.424;2023-05-10T14:34:41;18.20;99.90
23471;DHT22;11908;50.806;4.424;2023-05-10T14:37:09;18.00;99.90
23471;DHT22;11908;50.806;4.424;2023-05-10T14:39:35;17.80;99.90
23471;DHT22;11908;50.806;4.424;2023-05-10T14:42:00;17.70;99.90
23471;DHT22;11908;50.806;4.424;2023-05-10T14:44:28;17.70;99.90
23471;DHT22;11908;50.806;4.424;2023-05-10T14:46:53;17.60;99.90
23471;DHT22;11908;50.806;4.424;2023-05-10T14:49:19;17.50;99.90
23471;DHT22;11908;50.806;4.424;2023-05-10T14:51:48;17.60;99.90
23471;DHT22;11908;50.806;4.424;2023-05-10T14:54:13;17.80;99.90
23471;DHT22;11908;50.806;4.424;2023-05-10T14:56:39;17.90;99.90
23471;DHT22;11908;50.806;4.424;2023-05-10T14:59:07;17.70;99.90
23471;DHT22;11908;50.806;4.424;2023-05-10T15:01:32;17.30;99.90
23471;DHT22;11908;50.806;4.424;2023-05-10T15:04:00;16.90;99.90
23471;DHT22;11908;50.806;4.424;2023-05-10T15:06:34;16.70;99.90
23471;DHT22;11908;50.806;4.424;2023-05-10T15:09:01;16.80;99.90
23471;DHT22;11908;50.806;4.424;2023-05-10T15:11:28;16.80;99.90
23471;DHT22;11908;50.806;4.424;2023-05-10T15:13:55;16.70;99.90
23471;DHT22;11908;50.806;4.424;2023-05-10T15:16:21;16.60;99.90
23471;DHT22;11908;50.806;4.424;2023-05-10T15:18:46;16.40;99.90
23471;DHT22;11908;50.806;4.424;2023-05-10T15:21:12;16.20;99.90
23471;DHT22;11908;50.806;4.424;2023-05-10T15:23:38;16.40;99.90
23471;DHT22;11908;50.806;4.424;2023-05-10T15:26:04;16.60;99.90
23471;DHT22;11908;50.806;4.424;2023-05-10T15:28:30;16.90;99.90
23471;DHT22;11908;50.806;4.424;2023-05-10T15:30:55;17.00;99.90
23471;DHT22;11908;50.806;4.424;2023-05-10T15:33:22;17.00;99.90
23471;DHT22;11908;50.806;4.424;2023-05-10T15:35:47;17.00;99.90
23471;DHT22;11908;50.806;4.424;2023-05-10T15:38:13;17.00;99.90
23471;DHT22;11908;50.806;4.424;2023-05-10T15:40:39;17.10;99.90
23471;DHT22;11908;50.806;4.424;2023-05-10T15:43:05;17.00;99.90
23471;DHT22;11908;50.806;4.424;2023-05-10T15:45:31;16.90;99.90
23471;DHT22;11908;50.806;4.424;2023-05-10T15:47:57;16.90;99.90
23471;DHT22;11908;50.806;4.424;2023-05-10T15:50:24;17.00;99.90
23471;DHT22;11908;50.806;4.424;2023-05-10T15:52:50;17.00;99.90
23471;DHT22;11908;50.806;4.424;2023-05-10T15:55:16;16.90;99.90
23471;DHT22;11908;50.806;4.424;2023-05-10T15:57:43;17.00;99.90
23471;DHT22;11908;50.806;4.424;2023-05-10T16:00:09;16.80;99.90